sensor_id;sensor_type;location;lat;lon;timestamp;pressure;altitude;pressure_sealevel;temperature;humidity
36692;BME280;22678;52.052;4.242;2023-11-19T00:00:21;100802.66;;;13.03;100.00
36692;BME280;22678;52.052;4.242;2023-11-19T00:02:46;100829.88;;;13.06;100.00
36692;BME280;22678;52.052;4.242;2023-11-19T00:05:12;100831.66;;;13.04;100.00
36692;BME280;22678;52.052;4.242;2023-11-19T00:07:39;100828.19;;;13.02;100.00
36692;BME280;22678;52.052;4.242;2023-11-19T00:10:10;100838.66;;;13.07;100.00
36692;BME280;22678;52.052;4.242;2023-11-19T00:12:42;100819.44;;;13.00;100.00
36692;BME280;22678;52.052;4.242;2023-11-19T00:15:07;100835.22;;;13.03;100.00
36692;BME280;22678;52.052;4.242;2023-11-19T00:17:40;100831.72;;;13.01;100.00
36692;BME280;22678;52.052;4.242;2023-11-19T00:20:10;100822.91;;;13.02;100.00
36692;BME280;22678;52.052;4.242;2023-11-19T00:22:36;100819.50;;;12.97;100.00
36692;BME280;22678;52.052;4.242;2023-11-19T00:25:01;100804.59;;;12.94;100.00
36692;BME280;22678;52.052;4.242;2023-11-19T00:27:27;100808.97;;;12.94;100.00
36692;BME280;22678;52.052;4.242;2023-11-19T00:29:52;100812.53;;;12.93;100.00
36692;BME280;22678;52.052;4.242;2023-11-19T00:32:18;100802.84;;;12.93;100.00
36692;BME280;22678;52.052;4.242;2023-11-19T00:34:44;100791.41;;;12.93;100.00
36692;BME280;22678;52.052;4.242;2023-11-19T00:37:09;100802.84;;;12.93;100.00
36692;BME280;22678;52.052;4.242;2023-11-19T00:39:35;100805.44;;;12.95;100.00
36692;BME280;22678;52.052;4.242;2023-11-19T00:42:00;100792.28;;;12.93;100.00
36692;BME280;22678;52.052;4.242;2023-11-19T00:44:25;100796.69;;;12.93;100.00
36692;BME280;22678;52.052;4.242;2023-11-19T00:46:51;100805.50;;;12.92;100.00
36692;BME280;22678;52.052;4.242;2023-11-19T00:49:16;100786.19;;;12.90;100.00
36692;BME280;22678;52.052;4.242;2023-11-19T00:51:41;100775.63;;;12.90;100.00
36692;BME280;22678;52.052;4.242;2023-11-19T00:54:07;100782.56;;;12.94;100.00
36692;BME280;22678;52.052;4.242;2023-11-19T00:56:32;100787.03;;;12.92;100.00
36692;BME280;22678;52.052;4.242;2023-11-19T00:58:57;100741.81;;;12.64;100.00
36692;BME280;22678;52.052;4.242;2023-11-19T01:01:22;100782.69;;;12.88;100.00
36692;BME280;22678;52.052;4.242;2023-11-19T01:03:48;100777.34;;;12.91;100.00
36692;BME280;22678;52.052;4.242;2023-11-19T01:06:13;100762.47;;;12.88;100.00
36692;BME280;22678;52.052;4.242;2023-11-19T01:08:42;100766.91;;;12.85;100.00
36692;BME280;22678;52.052;4.242;2023-11-19T01:11:08;100773.94;;;12.86;100.00
36692;BME280;22678;52.052;4.242;2023-11-19T01:13:33;100719.13;;;12.55;100.00
36692;BME280;22678;52.052;4.242;2023-11-19T01:15:58;100763.59;;;12.73;100.00
36692;BME280;22678;52.052;4.242;2023-11-19T01:18:24;100752.22;;;12.71;100.00
36692;BME280;22678;52.052;4.242;2023-11-19T01:20:49;100754.75;;;12.77;100.00
36692;BME280;22678;52.052;4.242;2023-11-19T01:23:14;100767.94;;;12.77;100.00
36692;BME280;22678;52.052;4.242;2023-11-19T01:25:40;100766.22;;;12.75;100.00
36692;BME280;22678;52.052;4.242;2023-11-19T01:28:05;100746.13;;;12.69;100.00
36692;BME280;22678;52.052;4.242;2023-11-19T01:30:30;100766.31;;;12.70;100.00
36692;BME280;22678;52.052;4.242;2023-11-19T01:32:56;100774.22;;;12.70;100.00
36692;BME280;22678;52.052;4.242;2023-11-19T01:35:21;100776.84;;;12.70;100.00
36692;BME280;22678;52.052;4.242;2023-11-19T01:37:48;100768.19;;;12.64;100.00
36692;BME280;22678;52.052;4.242;2023-11-19T01:40:13;100769.91;;;12.66;100.00
36692;BME280;22678;52.052;4.242;2023-11-19T01:42:39;100768.09;;;12.68;100.00
36692;BME280;22678;52.052;4.242;2023-11-19T01:45:04;100760.38;;;12.59;100.00
36692;BME280;22678;52.052;4.242;2023-11-19T01:47:32;100755.94;;;12.59;100.00
36692;BME280;22678;52.052;4.242;2023-11-19T01:49:58;100756.81;;;12.60;100.00
36692;BME280;22678;52.052;4.242;2023-11-19T01:52:25;100748.06;;;12.58;100.00
36692;BME280;22678;52.052;4.242;2023-11-19T01:54:52;100769.19;;;12.56;100.00
36692;BME280;22678;52.052;4.242;2023-11-19T01:57:20;100789.34;;;12.60;100.00
36692;BME280;22678;52.052;4.242;2023-11-19T01:59:46;100790.38;;;12.52;100.00
36692;BME280;22678;52.052;4.242;2023-11-19T02:02:12;100800.81;;;12.58;100.00
36692;BME280;22678;52.052;4.242;2023-11-19T02:04:38;100795.63;;;12.53;100.00
36692;BME280;22678;52.052;4.242;2023-11-19T02:07:04;100787.72;;;12.53;100.00
36692;BME280;22678;52.052;4.242;2023-11-19T02:09:29;100790.38;;;12.52;100.00
36692;BME280;22678;52.052;4.242;2023-11-19T02:11:55;100789.44;;;12.54;100.00
36692;BME280;22678;52.052;4.242;2023-11-19T02:14:24;100788.56;;;12.55;100.00
36692;BME280;22678;52.052;4.242;2023-11-19T02:16:51;100779.84;;;12.52;100.00
36692;BME280;22678;52.052;4.242;2023-11-19T02:19:19;100788.59;;;12.54;100.00
36692;BME280;22678;52.052;4.242;2023-11-19T02:21:44;100780.69;;;12.52;100.00
36692;BME280;22678;52.052;4.242;2023-11-19T02:24:11;100757.97;;;12.43;100.00
36692;BME280;22678;52.052;4.242;2023-11-19T02:26:53;100771.06;;;12.50;100.00
36692;BME280;22678;52.052;4.242;2023-11-19T02:29:23;100758.84;;;12.46;100.00
36692;BME280;22678;52.052;4.242;2023-11-19T02:31:48;100772.88;;;12.48;100.00
36692;BME280;22678;52.052;4.242;2023-11-19T02:34:13;100769.47;;;12.39;100.00
36692;BME280;22678;52.052;4.242;2023-11-19T02:36:39;100773.81;;;12.43;100.00
36692;BME280;22678;52.052;4.242;2023-11-19T02:39:06;100764.19;;;12.41;100.00
36692;BME280;22678;52.052;4.242;2023-11-19T02:41:35;100773.03;;;12.38;100.00
36692;BME280;22678;52.052;4.242;2023-11-19T02:44:00;100773.84;;;12.42;100.00
36692;BME280;22678;52.052;4.242;2023-11-19T02:46:26;100756.38;;;12.35;100.00
36692;BME280;22678;52.052;4.242;2023-11-19T02:48:51;100772.13;;;12.38;100.00
36692;BME280;22678;52.052;4.242;2023-11-19T02:51:17;100782.72;;;12.36;100.00
36692;BME280;22678;52.052;4.242;2023-11-19T02:53:43;100788.91;;;12.35;100.00
36692;BME280;22678;52.052;4.242;2023-11-19T02:56:09;100776.63;;;12.33;100.00
36692;BME280;22678;52.052;4.242;2023-11-19T02:58:45;100770.53;;;12.29;100.00
36692;BME280;22678;52.052;4.242;2023-11-19T03:01:11;100772.31;;;12.29;100.00
36692;BME280;22678;52.052;4.242;2023-11-19T03:03:48;100753.94;;;12.22;100.00
36692;BME280;22678;52.052;4.242;2023-11-19T03:06:19;100749.47;;;12.27;100.00
36692;BME280;22678;52.052;4.242;2023-11-19T03:08:44;100766.22;;;12.25;100.00
36692;BME280;22678;52.052;4.242;2023-11-19T03:11:09;100764.41;;;12.27;100.00
36692;BME280;22678;52.052;4.242;2023-11-19T03:13:35;100760.84;;;12.31;100.00
36692;BME280;22678;52.052;4.242;2023-11-19T03:16:00;100752.13;;;12.26;100.00
36692;BME280;22678;52.052;4.242;2023-11-19T03:18:25;100747.78;;;12.25;100.00
36692;BME280;22678;52.052;4.242;2023-11-19T03:20:52;100726.78;;;12.17;100.00
36692;BME280;22678;52.052;4.242;2023-11-19T03:23:17;100741.63;;;12.23;100.00
36692;BME280;22678;52.052;4.242;2023-11-19T03:25:42;100734.59;;;12.22;100.00
36692;BME280;22678;52.052;4.242;2023-11-19T03:28:08;100744.28;;;12.23;100.00
36692;BME280;22678;52.052;4.242;2023-11-19T03:30:34;100730.31;;;12.18;100.00
36692;BME280;22678;52.052;4.242;2023-11-19T03:32:59;100743.44;;;12.21;100.00
36692;BME280;22678;52.052;4.242;2023-11-19T03:35:28;100763.59;;;12.22;100.00
36692;BME280;22678;52.052;4.242;2023-11-19T03:37:53;100754.88;;;12.20;100.00
36692;BME280;22678;52.052;4.242;2023-11-19T03:40:19;100756.63;;;12.21;100.00
36692;BME280;22678;52.052;4.242;2023-11-19T03:42:45;100728.78;;;12.01;100.00
36692;BME280;22678;52.052;4.242;2023-11-19T03:45:10;100764.59;;;12.18;100.00
36692;BME280;22678;52.052;4.242;2023-11-19T03:47:36;100754.09;;;12.12;100.00
36692;BME280;22678;52.052;4.242;2023-11-19T03:50:02;100765.50;;;12.14;100.00
36692;BME280;22678;52.052;4.242;2023-11-19T03:52:28;100752.38;;;12.11;100.00
36692;BME280;22678;52.052;4.242;2023-11-19T03:54:54;100762.91;;;12.12;100.00
36692;BME280;22678;52.052;4.242;2023-11-19T03:57:20;100741.06;;;12.04;100.00
36692;BME280;22678;52.052;4.242;2023-11-19T03:59:46;100766.47;;;12.09;100.00
36692;BME280;22678;52.052;4.242;2023-11-19T04:02:11;100769.03;;;12.13;100.00
36692;BME280;22678;52.052;4.242;2023-11-19T04:04:36;100773.53;;;12.07;100.00
36692;BME280;22678;52.052;4.242;2023-11-19T04:07:04;100780.53;;;12.08;100.00
36692;BME280;22678;52.052;4.242;2023-11-19T04:09:29;100778.75;;;12.11;100.00
36692;BME280;22678;52.052;4.242;2023-11-19T04:11:56;100787.50;;;12.11;100.00
36692;BME280;22678;52.052;4.242;2023-11-19T04:14:21;100771.81;;;12.03;100.00
36692;BME280;22678;52.052;4.242;2023-11-19T04:16:46;100767.47;;;12.01;100.00
36692;BME280;22678;52.052;4.242;2023-11-19T04:19:12;100768.38;;;11.98;100.00
36692;BME280;22678;52.052;4.242;2023-11-19T04:21:40;100757.03;;;11.91;100.00
36692;BME280;22678;52.052;4.242;2023-11-19T04:24:06;100767.50;;;11.98;100.00
36692;BME280;22678;52.052;4.242;2023-11-19T04:26:32;100791.22;;;11.99;100.00
36692;BME280;22678;52.052;4.242;2023-11-19T04:28:57;100778.19;;;11.87;100.00
36692;BME280;22678;52.052;4.242;2023-11-19T04:31:23;100789.47;;;11.98;100.00
36692;BME280;22678;52.052;4.242;2023-11-19T04:33:49;100794.69;;;12.01;100.00
36692;BME280;22678;52.052;4.242;2023-11-19T04:36:18;100783.25;;;12.02;100.00
36692;BME280;22678;52.052;4.242;2023-11-19T04:38:44;100781.56;;;11.98;100.00
36692;BME280;22678;52.052;4.242;2023-11-19T04:41:09;100791.13;;;12.05;100.00
36692;BME280;22678;52.052;4.242;2023-11-19T04:43:34;100796.41;;;12.04;100.00
36692;BME280;22678;52.052;4.242;2023-11-19T04:46:03;100778.00;;;12.01;100.00
36692;BME280;22678;52.052;4.242;2023-11-19T04:48:29;100764.97;;;11.90;100.00
36692;BME280;22678;52.052;4.242;2023-11-19T04:50:54;100783.31;;;11.98;100.00
36692;BME280;22678;52.052;4.242;2023-11-19T04:53:19;100779.00;;;11.94;100.00
36692;BME280;22678;52.052;4.242;2023-11-19T04:55:45;100788.63;;;11.96;100.00
36692;BME280;22678;52.052;4.242;2023-11-19T04:58:10;100772.88;;;11.93;100.00
36692;BME280;22678;52.052;4.242;2023-11-19T05:00:35;100751.94;;;11.81;99.58
36692;BME280;22678;52.052;4.242;2023-11-19T05:03:01;100780.78;;;11.93;99.60
36692;BME280;22678;52.052;4.242;2023-11-19T05:05:26;100780.78;;;11.93;99.60
36692;BME280;22678;52.052;4.242;2023-11-19T05:07:52;100784.25;;;11.92;99.92
36692;BME280;22678;52.052;4.242;2023-11-19T05:10:17;100800.06;;;11.92;100.00
36692;BME280;22678;52.052;4.242;2023-11-19T05:12:43;100800.97;;;11.94;100.00
36692;BME280;22678;52.052;4.242;2023-11-19T05:15:08;100807.97;;;11.92;100.00
36692;BME280;22678;52.052;4.242;2023-11-19T05:17:34;100807.97;;;11.94;100.00
36692;BME280;22678;52.052;4.242;2023-11-19T05:19:59;100813.28;;;11.89;100.00
36692;BME280;22678;52.052;4.242;2023-11-19T05:22:24;100803.63;;;11.88;100.00
36692;BME280;22678;52.052;4.242;2023-11-19T05:24:51;100793.97;;;11.88;100.00
36692;BME280;22678;52.052;4.242;2023-11-19T05:27:16;100786.16;;;11.84;100.00
36692;BME280;22678;52.052;4.242;2023-11-19T05:29:42;100798.34;;;11.88;100.00
36692;BME280;22678;52.052;4.242;2023-11-19T05:32:08;100784.41;;;11.83;100.00
36692;BME280;22678;52.052;4.242;2023-11-19T05:34:34;100765.31;;;11.65;100.00
36692;BME280;22678;52.052;4.242;2023-11-19T05:36:59;100794.88;;;11.87;100.00
36692;BME280;22678;52.052;4.242;2023-11-19T05:39:25;100786.16;;;11.84;100.00
36692;BME280;22678;52.052;4.242;2023-11-19T05:41:50;100794.09;;;11.79;100.00
36692;BME280;22678;52.052;4.242;2023-11-19T05:44:16;100809.91;;;11.81;100.00
36692;BME280;22678;52.052;4.242;2023-11-19T05:46:42;100800.25;;;11.80;100.00
36692;BME280;22678;52.052;4.242;2023-11-19T05:49:08;100803.78;;;11.79;100.00
36692;BME280;22678;52.052;4.242;2023-11-19T05:51:38;100803.78;;;11.79;100.00
36692;BME280;22678;52.052;4.242;2023-11-19T05:54:05;100801.19;;;11.75;100.00
36692;BME280;22678;52.052;4.242;2023-11-19T05:56:32;100799.41;;;11.76;100.00
36692;BME280;22678;52.052;4.242;2023-11-19T05:58:58;100791.53;;;11.74;100.00
36692;BME280;22678;52.052;4.242;2023-11-19T06:01:25;100789.81;;;11.73;100.00
36692;BME280;22678;52.052;4.242;2023-11-19T06:03:51;100796.75;;;11.78;100.00
36692;BME280;22678;52.052;4.242;2023-11-19T06:06:17;100798.50;;;11.79;100.00
36692;BME280;22678;52.052;4.242;2023-11-19T06:08:42;100778.38;;;11.73;100.00
36692;BME280;22678;52.052;4.242;2023-11-19T06:11:07;100765.22;;;11.71;100.00
36692;BME280;22678;52.052;4.242;2023-11-19T06:13:37;100789.75;;;11.77;100.00
36692;BME280;22678;52.052;4.242;2023-11-19T06:16:03;100782.75;;;11.75;100.00
36692;BME280;22678;52.052;4.242;2023-11-19T06:18:28;100788.91;;;11.73;99.99
36692;BME280;22678;52.052;4.242;2023-11-19T06:20:54;100781.94;;;11.72;100.00
36692;BME280;22678;52.052;4.242;2023-11-19T06:23:19;100789.75;;;11.77;100.00
36692;BME280;22678;52.052;4.242;2023-11-19T06:25:45;100785.41;;;11.74;100.00
36692;BME280;22678;52.052;4.242;2023-11-19T06:28:10;100802.09;;;11.71;100.00
36692;BME280;22678;52.052;4.242;2023-11-19T06:30:35;100780.16;;;11.71;100.00
36692;BME280;22678;52.052;4.242;2023-11-19T06:33:01;100775.81;;;11.68;100.00
36692;BME280;22678;52.052;4.242;2023-11-19T06:35:26;100801.16;;;11.77;100.00
36692;BME280;22678;52.052;4.242;2023-11-19T06:37:52;100810.84;;;11.77;100.00
36692;BME280;22678;52.052;4.242;2023-11-19T06:40:17;100790.72;;;11.69;100.00
36692;BME280;22678;52.052;4.242;2023-11-19T06:42:43;100821.28;;;11.83;100.00
36692;BME280;22678;52.052;4.242;2023-11-19T06:45:08;100816.00;;;11.83;100.00
36692;BME280;22678;52.052;4.242;2023-11-19T06:47:34;100823.03;;;11.84;100.00
36692;BME280;22678;52.052;4.242;2023-11-19T06:49:59;100821.22;;;11.86;100.00
36692;BME280;22678;52.052;4.242;2023-11-19T06:52:25;100807.28;;;11.81;100.00
36692;BME280;22678;52.052;4.242;2023-11-19T06:54:50;100837.84;;;11.92;100.00
36692;BME280;22678;52.052;4.242;2023-11-19T06:57:16;100836.94;;;11.95;100.00
36692;BME280;22678;52.052;4.242;2023-11-19T06:59:42;100828.22;;;11.90;100.00
36692;BME280;22678;52.052;4.242;2023-11-19T07:02:07;100818.53;;;11.90;100.00
36692;BME280;22678;52.052;4.242;2023-11-19T07:04:32;100827.31;;;11.94;100.00
36692;BME280;22678;52.052;4.242;2023-11-19T07:07:00;100812.38;;;11.93;100.00
36692;BME280;22678;52.052;4.242;2023-11-19T07:09:26;100820.25;;;11.96;100.00
36692;BME280;22678;52.052;4.242;2023-11-19T07:11:52;100821.13;;;11.95;100.00
36692;BME280;22678;52.052;4.242;2023-11-19T07:14:18;100824.63;;;11.97;100.00
36692;BME280;22678;52.052;4.242;2023-11-19T07:16:44;100829.88;;;11.99;100.00
36692;BME280;22678;52.052;4.242;2023-11-19T07:19:09;100814.97;;;11.96;100.00
36692;BME280;22678;52.052;4.242;2023-11-19T07:21:35;100816.75;;;11.92;100.00
36692;BME280;22678;52.052;4.242;2023-11-19T07:24:05;100818.53;;;11.90;100.00
36692;BME280;22678;52.052;4.242;2023-11-19T07:26:30;100829.94;;;11.91;100.00
36692;BME280;22678;52.052;4.242;2023-11-19T07:28:56;100828.19;;;11.93;100.00
36692;BME280;22678;52.052;4.242;2023-11-19T07:31:21;100835.22;;;11.94;100.00
36692;BME280;22678;52.052;4.242;2023-11-19T07:33:47;100820.22;;;11.98;100.00
36692;BME280;22678;52.052;4.242;2023-11-19T07:36:13;100824.63;;;11.99;100.00
36692;BME280;22678;52.052;4.242;2023-11-19T07:38:39;100822.03;;;11.96;100.00
36692;BME280;22678;52.052;4.242;2023-11-19T07:41:07;100832.50;;;12.00;100.00
36692;BME280;22678;52.052;4.242;2023-11-19T07:43:37;100835.09;;;12.03;99.80
36692;BME280;22678;52.052;4.242;2023-11-19T07:46:03;100831.50;;;12.07;99.02
36692;BME280;22678;52.052;4.242;2023-11-19T07:48:29;100819.22;;;12.06;98.36
36692;BME280;22678;52.052;4.242;2023-11-19T07:50:55;100811.25;;;12.09;97.57
36692;BME280;22678;52.052;4.242;2023-11-19T07:53:20;100811.25;;;12.09;97.29
36692;BME280;22678;52.052;4.242;2023-11-19T07:55:46;100819.16;;;12.11;97.28
36692;BME280;22678;52.052;4.242;2023-11-19T07:58:11;100829.66;;;12.13;97.00
36692;BME280;22678;52.052;4.242;2023-11-19T08:00:37;100819.06;;;12.16;96.82
36692;BME280;22678;52.052;4.242;2023-11-19T08:03:03;100826.88;;;12.23;96.59
36692;BME280;22678;52.052;4.242;2023-11-19T08:05:29;100826.00;;;12.23;96.85
36692;BME280;22678;52.052;4.242;2023-11-19T08:07:54;100832.13;;;12.26;96.41
36692;BME280;22678;52.052;4.242;2023-11-19T08:10:20;100817.94;;;12.34;96.18
36692;BME280;22678;52.052;4.242;2023-11-19T08:12:45;100821.41;;;12.36;96.09
36692;BME280;22678;52.052;4.242;2023-11-19T08:15:11;100837.97;;;12.46;96.01
36692;BME280;22678;52.052;4.242;2023-11-19T08:17:37;100822.09;;;12.49;95.30
36692;BME280;22678;52.052;4.242;2023-11-19T08:20:03;100841.22;;;12.60;95.29
36692;BME280;22678;52.052;4.242;2023-11-19T08:22:30;100834.22;;;12.59;94.69
36692;BME280;22678;52.052;4.242;2023-11-19T08:24:55;100826.38;;;12.56;94.25
36692;BME280;22678;52.052;4.242;2023-11-19T08:27:20;100824.59;;;12.56;94.14
36692;BME280;22678;52.052;4.242;2023-11-19T08:29:54;100822.81;;;12.57;94.27
36692;BME280;22678;52.052;4.242;2023-11-19T08:32:27;100839.34;;;12.68;94.47
36692;BME280;22678;52.052;4.242;2023-11-19T08:34:53;100840.16;;;12.72;93.82
36692;BME280;22678;52.052;4.242;2023-11-19T08:37:18;100848.91;;;12.75;93.86
36692;BME280;22678;52.052;4.242;2023-11-19T08:39:49;100837.53;;;12.70;93.78
36692;BME280;22678;52.052;4.242;2023-11-19T08:42:14;100830.50;;;12.72;93.60
36692;BME280;22678;52.052;4.242;2023-11-19T08:44:40;100829.56;;;12.73;93.45
36692;BME280;22678;52.052;4.242;2023-11-19T08:47:08;100830.50;;;12.72;93.22
36692;BME280;22678;52.052;4.242;2023-11-19T08:49:34;100824.28;;;12.76;92.99
36692;BME280;22678;52.052;4.242;2023-11-19T08:51:59;100830.50;;;12.72;93.05
36692;BME280;22678;52.052;4.242;2023-11-19T08:54:25;100828.63;;;12.77;93.09
36692;BME280;22678;52.052;4.242;2023-11-19T08:56:50;100827.78;;;12.75;93.09
36692;BME280;22678;52.052;4.242;2023-11-19T08:59:16;100836.47;;;12.82;93.12
36692;BME280;22678;52.052;4.242;2023-11-19T09:01:41;100829.38;;;12.86;92.29
36692;BME280;22678;52.052;4.242;2023-11-19T09:04:07;100826.72;;;12.86;92.20
36692;BME280;22678;52.052;4.242;2023-11-19T09:06:33;100827.63;;;12.85;91.93
36692;BME280;22678;52.052;4.242;2023-11-19T09:08:58;100817.09;;;12.83;91.97
36692;BME280;22678;52.052;4.242;2023-11-19T09:11:27;100826.66;;;12.90;92.08
36692;BME280;22678;52.052;4.242;2023-11-19T09:13:52;100831.91;;;12.92;91.81
36692;BME280;22678;52.052;4.242;2023-11-19T09:16:18;100819.66;;;12.88;91.30
36692;BME280;22678;52.052;4.242;2023-11-19T09:18:43;100831.78;;;12.98;90.87
36692;BME280;22678;52.052;4.242;2023-11-19T09:21:11;100827.41;;;12.97;91.09
36692;BME280;22678;52.052;4.242;2023-11-19T09:23:36;100819.81;;;13.27;90.52
36692;BME280;22678;52.052;4.242;2023-11-19T09:26:05;100830.72;;;13.55;89.03
36692;BME280;22678;52.052;4.242;2023-11-19T09:28:30;100830.22;;;13.78;87.86
36692;BME280;22678;52.052;4.242;2023-11-19T09:30:56;100831.19;;;13.74;86.49
36692;BME280;22678;52.052;4.242;2023-11-19T09:33:21;100813.00;;;13.60;86.55
36692;BME280;22678;52.052;4.242;2023-11-19T09:35:46;100834.09;;;13.62;86.57
36692;BME280;22678;52.052;4.242;2023-11-19T09:38:14;100823.56;;;13.59;86.66
36692;BME280;22678;52.052;4.242;2023-11-19T09:40:40;100828.94;;;13.56;86.42
36692;BME280;22678;52.052;4.242;2023-11-19T09:43:06;100828.16;;;13.51;86.26
36692;BME280;22678;52.052;4.242;2023-11-19T09:45:45;100822.06;;;13.47;86.39
36692;BME280;22678;52.052;4.242;2023-11-19T09:48:12;100842.31;;;13.48;86.12
36692;BME280;22678;52.052;4.242;2023-11-19T09:50:38;100828.41;;;13.40;86.00
36692;BME280;22678;52.052;4.242;2023-11-19T09:53:04;100837.94;;;13.45;85.60
36692;BME280;22678;52.052;4.242;2023-11-19T09:55:30;100840.66;;;13.42;85.20
36692;BME280;22678;52.052;4.242;2023-11-19T09:57:56;100843.94;;;13.54;84.06
36692;BME280;22678;52.052;4.242;2023-11-19T10:00:24;100843.69;;;13.66;84.19
36692;BME280;22678;52.052;4.242;2023-11-19T10:02:50;100828.63;;;13.71;83.57
36692;BME280;22678;52.052;4.242;2023-11-19T10:05:15;100838.16;;;13.78;83.17
36692;BME280;22678;52.052;4.242;2023-11-19T10:07:41;100835.31;;;13.88;83.07
36692;BME280;22678;52.052;4.242;2023-11-19T10:10:06;100836.09;;;13.91;82.84
36692;BME280;22678;52.052;4.242;2023-11-19T10:12:32;100815.84;;;13.92;82.38
36692;BME280;22678;52.052;4.242;2023-11-19T10:14:58;100840.25;;;14.03;82.68
36692;BME280;22678;52.052;4.242;2023-11-19T10:17:33;100841.09;;;14.05;82.40
36692;BME280;22678;52.052;4.242;2023-11-19T10:19:59;100819.22;;;13.97;82.04
36692;BME280;22678;52.052;4.242;2023-11-19T10:22:24;100821.72;;;14.05;82.35
36692;BME280;22678;52.052;4.242;2023-11-19T10:24:51;100815.53;;;14.04;82.15
36692;BME280;22678;52.052;4.242;2023-11-19T10:27:17;100816.31;;;14.09;82.18
36692;BME280;22678;52.052;4.242;2023-11-19T10:29:46;100818.81;;;14.15;82.14
36692;BME280;22678;52.052;4.242;2023-11-19T10:32:13;100815.28;;;14.16;81.37
36692;BME280;22678;52.052;4.242;2023-11-19T10:34:39;100818.59;;;14.25;81.29
36692;BME280;22678;52.052;4.242;2023-11-19T10:37:07;100816.78;;;14.27;81.14
36692;BME280;22678;52.052;4.242;2023-11-19T10:39:52;100820.06;;;14.36;80.60
36692;BME280;22678;52.052;4.242;2023-11-19T10:42:21;100834.09;;;14.40;80.18
36692;BME280;22678;52.052;4.242;2023-11-19T10:44:46;100821.78;;;14.39;79.59
36692;BME280;22678;52.052;4.242;2023-11-19T10:47:13;100813.03;;;14.37;79.72
36692;BME280;22678;52.052;4.242;2023-11-19T10:49:39;100818.28;;;14.39;79.52
36692;BME280;22678;52.052;4.242;2023-11-19T10:52:05;100812.88;;;14.43;78.71
36692;BME280;22678;52.052;4.242;2023-11-19T10:54:34;100815.56;;;14.42;78.11
36692;BME280;22678;52.052;4.242;2023-11-19T10:57:01;100813.72;;;14.44;77.63
36692;BME280;22678;52.052;4.242;2023-11-19T10:59:30;100821.38;;;14.54;76.91
36692;BME280;22678;52.052;4.242;2023-11-19T11:01:56;100824.22;;;14.47;77.09
36692;BME280;22678;52.052;4.242;2023-11-19T11:04:25;100815.59;;;14.40;77.22
36692;BME280;22678;52.052;4.242;2023-11-19T11:06:54;100813.09;;;14.34;77.33
36692;BME280;22678;52.052;4.242;2023-11-19T11:09:20;100824.66;;;14.30;77.17
36692;BME280;22678;52.052;4.242;2023-11-19T11:11:47;100807.00;;;14.30;77.10
36692;BME280;22678;52.052;4.242;2023-11-19T11:14:13;100814.91;;;14.32;77.56
36692;BME280;22678;52.052;4.242;2023-11-19T11:16:42;100799.97;;;14.29;77.78
36692;BME280;22678;52.052;4.242;2023-11-19T11:19:09;100810.47;;;14.34;78.14
36692;BME280;22678;52.052;4.242;2023-11-19T11:21:36;100790.44;;;14.24;78.41
36692;BME280;22678;52.052;4.242;2023-11-19T11:24:20;100800.50;;;14.44;79.42
36692;BME280;22678;52.052;4.242;2023-11-19T11:29:41;100792.00;;;14.67;80.31
36692;BME280;22678;52.052;4.242;2023-11-19T11:32:18;100811.09;;;14.80;78.86
36692;BME280;22678;52.052;4.242;2023-11-19T11:35:12;100780.41;;;14.73;78.16
36692;BME280;22678;52.052;4.242;2023-11-19T11:37:46;100789.19;;;14.73;77.97
36692;BME280;22678;52.052;4.242;2023-11-19T11:40:17;100785.94;;;14.62;78.67
36692;BME280;22678;52.052;4.242;2023-11-19T11:42:46;100778.91;;;14.61;78.97
36692;BME280;22678;52.052;4.242;2023-11-19T11:45:13;100778.69;;;14.70;79.28
36692;BME280;22678;52.052;4.242;2023-11-19T11:50:09;100781.75;;;14.87;78.13
36692;BME280;22678;52.052;4.242;2023-11-19T11:57:51;100779.16;;;14.86;75.33
36692;BME280;22678;52.052;4.242;2023-11-19T12:02:59;100789.50;;;14.61;75.77
36692;BME280;22678;52.052;4.242;2023-11-19T12:05:25;100788.03;;;14.49;76.48
36692;BME280;22678;52.052;4.242;2023-11-19T12:08:01;100792.63;;;14.41;77.25
36692;BME280;22678;52.052;4.242;2023-11-19T12:10:31;100774.41;;;14.30;77.75
36692;BME280;22678;52.052;4.242;2023-11-19T12:13:01;100782.34;;;14.30;78.01
36692;BME280;22678;52.052;4.242;2023-11-19T12:15:27;100780.75;;;14.23;78.53
36692;BME280;22678;52.052;4.242;2023-11-19T12:17:56;100782.50;;;14.22;78.97
36692;BME280;22678;52.052;4.242;2023-11-19T12:20:23;100786.09;;;14.19;79.53
36692;BME280;22678;52.052;4.242;2023-11-19T12:22:49;100784.41;;;14.17;79.61
36692;BME280;22678;52.052;4.242;2023-11-19T12:25:16;100773.03;;;14.13;79.52
36692;BME280;22678;52.052;4.242;2023-11-19T12:27:44;100769.69;;;14.05;79.84
36692;BME280;22678;52.052;4.242;2023-11-19T12:30:10;100788.00;;;14.13;80.09
36692;BME280;22678;52.052;4.242;2023-11-19T12:32:42;100777.66;;;14.04;80.28
36692;BME280;22678;52.052;4.242;2023-11-19T12:35:08;100781.97;;;14.08;80.42
36692;BME280;22678;52.052;4.242;2023-11-19T12:37:46;100776.81;;;14.01;80.40
36692;BME280;22678;52.052;4.242;2023-11-19T12:40:16;100788.25;;;14.04;80.78
36692;BME280;22678;52.052;4.242;2023-11-19T12:42:43;100784.63;;;14.08;81.06
36692;BME280;22678;52.052;4.242;2023-11-19T12:45:09;100786.19;;;14.16;81.46
36692;BME280;22678;52.052;4.242;2023-11-19T12:47:40;100769.94;;;14.32;81.33
36692;BME280;22678;52.052;4.242;2023-11-19T12:50:06;100760.19;;;14.34;80.00
36692;BME280;22678;52.052;4.242;2023-11-19T12:52:33;100785.75;;;14.33;79.70